createdAt,value
2022-10-31T00:00:00.355Z,2.42
2022-10-31T00:02:02.134Z,2.45
2022-10-31T00:04:04.765Z,2.28
2022-10-31T00:06:06.427Z,2.33
2022-10-31T00:08:08.063Z,2.30
2022-10-31T00:10:10.146Z,2.65
2022-10-31T00:12:11.892Z,2.53
2022-10-31T00:14:13.524Z,2.08
2022-10-31T00:16:19.564Z,2.70
2022-10-31T00:18:21.183Z,1.98
2022-10-31T00:20:22.858Z,2.80
2022-10-31T00:22:24.440Z,2.58
2022-10-31T00:24:26.084Z,3.35
2022-10-31T00:26:29.203Z,2.88
2022-10-31T00:28:31.502Z,2.92
2022-10-31T00:30:33.336Z,3.25
2022-10-31T00:32:34.970Z,2.35
2022-10-31T00:34:36.690Z,2.40
2022-10-31T00:36:38.410Z,1.73
2022-10-31T00:38:40.517Z,1.77
2022-10-31T00:40:42.120Z,1.95
2022-10-31T00:42:44.302Z,2.65
2022-10-31T00:44:46.310Z,2.78
2022-10-31T00:46:47.910Z,2.05
2022-10-31T00:48:49.596Z,2.30
2022-10-31T00:50:51.187Z,2.22
2022-10-31T00:52:55.783Z,3.25
2022-10-31T00:54:57.513Z,2.20
2022-10-31T00:56:59.220Z,2.88
2022-10-31T00:59:00.895Z,2.42
2022-10-31T01:01:02.629Z,2.17
2022-10-31T01:03:04.418Z,2.08
2022-10-31T01:05:06.242Z,2.75
2022-10-31T01:07:08.114Z,2.38
2022-10-31T01:09:09.808Z,2.80
2022-10-31T01:11:29.243Z,1.80
2022-10-31T01:13:31.060Z,2.10
2022-10-31T01:15:32.780Z,2.30
2022-10-31T01:17:34.389Z,2.03
2022-10-31T01:19:36.047Z,3.03
2022-10-31T01:21:37.740Z,2.22
2022-10-31T01:23:39.676Z,2.70
2022-10-31T01:25:41.294Z,1.95
2022-10-31T01:27:42.978Z,2.28
2022-10-31T01:29:44.613Z,2.00
2022-10-31T01:31:46.301Z,2.08
2022-10-31T01:33:48.647Z,2.33
2022-10-31T01:35:50.283Z,2.35
2022-10-31T01:37:51.922Z,2.80
2022-10-31T01:39:53.605Z,2.13
2022-10-31T01:41:55.548Z,3.05
2022-10-31T01:44:23.477Z,4.15
2022-10-31T01:46:35.099Z,2.17
2022-10-31T01:48:36.853Z,2.45
2022-10-31T01:50:39.524Z,2.47
2022-10-31T01:52:46.129Z,1.70
2022-10-31T01:54:54.416Z,2.50
2022-10-31T01:56:57.631Z,2.20
2022-10-31T01:59:01.209Z,1.95
2022-10-31T02:01:06.703Z,2.30
2022-10-31T02:03:09.768Z,1.92
2022-10-31T02:05:15.090Z,2.45
2022-10-31T02:07:28.069Z,2.40
2022-10-31T02:09:31.960Z,2.50
2022-10-31T02:11:35.879Z,2.28
2022-10-31T02:13:38.177Z,2.22
2022-10-31T02:15:40.827Z,1.60
2022-10-31T02:17:42.532Z,2.00
2022-10-31T02:19:55.170Z,2.15
2022-10-31T02:22:22.491Z,2.10
2022-10-31T02:24:50.756Z,2.13
2022-10-31T02:27:20.280Z,2.28
2022-10-31T02:29:43.388Z,1.73
2022-10-31T02:31:50.810Z,2.47
2022-10-31T02:33:55.182Z,1.88
2022-10-31T02:36:07.064Z,1.58
2022-10-31T02:38:24.424Z,1.95
2022-10-31T02:40:32.129Z,1.90
2022-10-31T02:42:37.690Z,2.92
2022-10-31T02:44:49.234Z,3.03
2022-10-31T02:47:12.516Z,1.73
2022-10-31T02:49:27.419Z,1.92
2022-10-31T02:51:29.382Z,2.30
2022-10-31T02:53:35.168Z,1.70
2022-10-31T02:55:36.755Z,1.90
2022-10-31T02:57:40.023Z,2.30
2022-10-31T02:59:47.410Z,2.08
2022-10-31T03:01:57.923Z,2.05
2022-10-31T03:04:13.044Z,2.25
2022-10-31T03:06:38.844Z,1.90
2022-10-31T03:08:46.568Z,2.63
2022-10-31T03:10:54.076Z,2.75
2022-10-31T03:13:25.160Z,2.35
2022-10-31T03:15:30.349Z,2.42
2022-10-31T03:17:42.842Z,2.60
2022-10-31T03:19:47.326Z,2.67
2022-10-31T03:22:18.239Z,2.40
2022-10-31T03:24:21.108Z,2.35
2022-10-31T03:26:23.435Z,2.63
2022-10-31T03:28:31.033Z,1.80
2022-10-31T03:30:34.999Z,2.53
2022-10-31T03:32:40.820Z,2.42
2022-10-31T03:34:44.020Z,3.40
2022-10-31T03:36:46.331Z,2.53
2022-10-31T03:38:48.752Z,2.55
2022-10-31T03:40:52.893Z,2.83
2022-10-31T03:43:03.402Z,2.10
2022-10-31T03:45:08.162Z,2.17
2022-10-31T03:47:09.889Z,2.70
2022-10-31T03:49:12.801Z,2.15
2022-10-31T03:51:24.212Z,2.00
2022-10-31T03:54:10.773Z,2.10
2022-10-31T03:56:36.538Z,2.20
2022-10-31T03:58:44.467Z,2.20
2022-10-31T04:00:47.138Z,2.28
2022-10-31T04:02:52.391Z,2.25
2022-10-31T04:04:54.374Z,3.22
2022-10-31T04:06:58.059Z,1.88
2022-10-31T04:09:03.669Z,3.05
2022-10-31T04:11:05.896Z,2.30
2022-10-31T04:13:10.167Z,1.75
2022-10-31T04:15:12.473Z,2.22
2022-10-31T04:17:16.545Z,2.17
2022-10-31T04:19:18.300Z,2.72
2022-10-31T04:21:19.894Z,2.25
2022-10-31T04:23:24.136Z,2.15
2022-10-31T04:25:25.863Z,2.42
2022-10-31T04:27:27.518Z,2.50
2022-10-31T04:29:29.143Z,2.00
2022-10-31T04:31:30.959Z,2.13
2022-10-31T04:33:32.562Z,3.15
2022-10-31T04:35:34.194Z,2.35
2022-10-31T04:37:35.917Z,2.22
2022-10-31T04:39:37.532Z,2.20
2022-10-31T04:41:39.130Z,2.53
2022-10-31T04:43:40.758Z,2.47
2022-10-31T04:45:42.393Z,1.58
2022-10-31T04:47:44.059Z,3.03
2022-10-31T04:49:45.689Z,2.17
2022-10-31T04:51:47.294Z,2.75
2022-10-31T04:53:49.067Z,1.80
2022-10-31T04:55:50.645Z,2.13
2022-10-31T04:57:52.274Z,1.98
2022-10-31T04:59:54.081Z,2.50
2022-10-31T05:01:55.798Z,2.30
2022-10-31T05:03:57.551Z,2.13
2022-10-31T05:05:59.247Z,2.28
2022-10-31T05:08:00.954Z,2.20
2022-10-31T05:10:02.536Z,2.17
2022-10-31T05:12:04.361Z,2.17
2022-10-31T05:14:06.191Z,1.92
2022-10-31T05:16:08.008Z,2.10
2022-10-31T05:18:10.154Z,1.77
2022-10-31T05:20:13.115Z,1.85
2022-10-31T05:22:14.704Z,1.88
2022-10-31T05:24:16.379Z,2.22
2022-10-31T05:26:17.996Z,2.17
2022-10-31T05:28:19.633Z,2.47
2022-10-31T05:30:28.232Z,2.42
2022-10-31T05:32:30.741Z,2.10
2022-10-31T05:34:32.393Z,2.08
2022-10-31T05:36:33.995Z,2.08
2022-10-31T05:38:35.664Z,2.25
2022-10-31T05:40:37.300Z,2.20
2022-10-31T05:42:43.415Z,1.95
2022-10-31T05:44:45.140Z,2.28
2022-10-31T05:46:49.298Z,2.00
2022-10-31T05:48:50.913Z,1.95
2022-10-31T05:50:53.196Z,1.92
2022-10-31T05:52:56.840Z,1.67
2022-10-31T05:54:58.527Z,2.20
2022-10-31T05:57:00.108Z,1.80
2022-10-31T05:59:01.731Z,1.60
2022-10-31T06:01:03.552Z,2.03
2022-10-31T06:05:09.812Z,1.92
2022-10-31T06:07:11.596Z,3.90
2022-10-31T06:09:13.227Z,2.28
2022-10-31T06:11:14.842Z,2.30
2022-10-31T06:13:16.949Z,2.63
2022-10-31T06:15:23.469Z,2.22
2022-10-31T06:17:25.898Z,2.45
2022-10-31T06:19:27.514Z,2.45
2022-10-31T06:21:29.193Z,1.85
2022-10-31T06:23:30.908Z,1.80
2022-10-31T06:25:32.583Z,2.10
2022-10-31T06:27:34.204Z,2.35
2022-10-31T06:29:35.832Z,2.40
2022-10-31T06:31:37.413Z,2.92
2022-10-31T06:33:39.088Z,2.75
2022-10-31T06:35:46.855Z,2.33
2022-10-31T06:37:54.656Z,2.10
2022-10-31T06:39:56.286Z,2.25
2022-10-31T06:41:57.900Z,2.20
2022-10-31T06:44:01.388Z,2.50
2022-10-31T06:46:06.594Z,2.35
2022-10-31T06:48:17.285Z,2.22
2022-10-31T06:50:20.060Z,2.30
2022-10-31T06:52:21.684Z,1.85
2022-10-31T06:54:23.451Z,2.50
2022-10-31T06:56:25.314Z,2.17
2022-10-31T06:58:26.990Z,2.17
2022-10-31T07:00:30.348Z,1.63
2022-10-31T07:02:31.998Z,2.17
2022-10-31T07:04:33.764Z,2.65
2022-10-31T07:06:35.535Z,2.45
2022-10-31T07:08:37.316Z,1.90
2022-10-31T07:12:13.523Z,2.85
2022-10-31T07:14:24.462Z,2.92
2022-10-31T07:16:26.714Z,2.97
2022-10-31T07:18:28.534Z,2.78
2022-10-31T07:20:47.683Z,3.88
2022-10-31T07:22:50.769Z,2.97
2022-10-31T07:24:52.377Z,2.78
2022-10-31T07:26:53.863Z,3.22
2022-10-31T07:29:00.353Z,3.28
2022-10-31T07:31:01.753Z,3.55
2022-10-31T07:33:03.480Z,3.40
2022-10-31T07:35:05.078Z,3.15
2022-10-31T07:37:14.033Z,3.42
2022-10-31T07:39:15.541Z,2.55
2022-10-31T07:41:17.121Z,3.40
2022-10-31T07:43:18.682Z,3.20
2022-10-31T07:45:21.548Z,3.20
2022-10-31T07:47:22.963Z,2.85
2022-10-31T07:49:26.374Z,2.67
2022-10-31T07:51:27.863Z,3.58
2022-10-31T07:53:29.351Z,3.75
2022-10-31T07:55:31.407Z,3.03
2022-10-31T07:57:34.799Z,3.35
2022-10-31T07:59:36.419Z,2.53
2022-10-31T08:01:37.925Z,3.53
2022-10-31T08:03:48.897Z,2.85
2022-10-31T08:05:50.346Z,3.13
2022-10-31T08:07:51.777Z,3.03
2022-10-31T08:09:53.494Z,3.45
2022-10-31T08:11:54.950Z,3.55
2022-10-31T08:13:56.380Z,2.45
2022-10-31T08:16:04.284Z,3.65
2022-10-31T08:18:14.664Z,3.20
2022-10-31T08:20:17.195Z,3.53
2022-10-31T08:22:18.602Z,2.58
2022-10-31T08:24:20.115Z,2.78
2022-10-31T08:26:21.741Z,3.13
2022-10-31T08:28:23.522Z,2.85
2022-10-31T08:30:30.320Z,3.20
2022-10-31T08:34:47.376Z,3.00
2022-10-31T08:36:48.837Z,3.08
2022-10-31T08:38:57.769Z,2.60
2022-10-31T08:41:06.344Z,3.53
2022-10-31T08:43:13.539Z,3.33
2022-10-31T08:45:15.224Z,3.72
2022-10-31T08:47:16.693Z,3.33
2022-10-31T08:49:18.181Z,3.40
2022-10-31T08:51:20.622Z,3.03
2022-10-31T08:53:23.563Z,3.63
2022-10-31T08:55:32.185Z,3.75
2022-10-31T08:57:33.628Z,3.20
2022-10-31T08:59:35.075Z,3.15
2022-10-31T09:01:36.821Z,2.97
2022-10-31T09:03:38.361Z,3.28
2022-10-31T09:05:40.152Z,2.58
2022-10-31T09:07:41.627Z,3.53
2022-10-31T09:09:43.071Z,3.25
2022-10-31T09:11:47.070Z,3.70
2022-10-31T09:13:48.514Z,2.80
2022-10-31T09:15:52.052Z,3.13
2022-10-31T09:17:53.627Z,3.38
2022-10-31T09:19:55.097Z,3.10
2022-10-31T09:22:05.762Z,2.78
2022-10-31T09:24:07.333Z,3.10
2022-10-31T09:26:08.958Z,3.05
2022-10-31T09:28:12.852Z,2.40
2022-10-31T09:30:15.596Z,2.67
2022-10-31T09:32:17.009Z,2.28
2022-10-31T09:34:18.438Z,2.85
2022-10-31T09:36:42.256Z,2.88
2022-10-31T09:41:39.285Z,2.85
2022-10-31T09:43:58.747Z,2.45
2022-10-31T09:46:14.952Z,2.47
2022-10-31T09:48:50.675Z,2.40
2022-10-31T09:51:19.737Z,2.50
2022-10-31T09:53:39.935Z,2.22
2022-10-31T09:55:57.415Z,2.03
2022-10-31T09:58:00.675Z,2.20
2022-10-31T10:00:05.272Z,2.72
2022-10-31T10:02:15.182Z,2.42
2022-10-31T10:04:59.406Z,1.77
2022-10-31T10:07:04.648Z,2.53
2022-10-31T10:09:11.164Z,2.20
2022-10-31T10:11:42.998Z,1.92
2022-10-31T10:14:08.958Z,2.03
2022-10-31T10:16:27.626Z,1.90
2022-10-31T10:19:26.650Z,2.00
2022-10-31T10:21:52.139Z,2.40
2022-10-31T10:24:31.423Z,2.03
2022-10-31T10:26:43.786Z,2.10
2022-10-31T10:28:49.477Z,2.08
2022-10-31T10:30:54.963Z,1.77
2022-10-31T10:33:13.162Z,2.10
2022-10-31T10:35:43.728Z,2.50
2022-10-31T10:37:50.305Z,2.65
2022-10-31T10:40:15.563Z,2.78
2022-10-31T10:42:38.457Z,2.28
2022-10-31T10:45:05.317Z,1.98
2022-10-31T10:47:30.716Z,1.95
2022-10-31T10:50:08.259Z,2.03
2022-10-31T10:52:44.762Z,2.15
2022-10-31T10:55:18.292Z,2.30
2022-10-31T10:57:39.100Z,2.25
2022-10-31T10:59:58.794Z,2.15
2022-10-31T11:02:20.632Z,2.05
2022-10-31T11:04:36.771Z,1.98
2022-10-31T11:06:45.630Z,2.90
2022-10-31T11:08:47.274Z,2.75
2022-10-31T11:10:59.172Z,1.90
2022-10-31T11:13:13.006Z,2.05
2022-10-31T11:15:26.786Z,1.67
2022-10-31T11:17:30.366Z,2.63
2022-10-31T11:19:32.053Z,2.00
2022-10-31T11:21:35.763Z,2.28
2022-10-31T11:23:37.481Z,1.80
2022-10-31T11:25:39.149Z,2.05
2022-10-31T11:27:41.154Z,2.22
2022-10-31T11:29:43.487Z,2.17
2022-10-31T11:31:46.677Z,2.42
2022-10-31T11:33:50.664Z,2.38
2022-10-31T11:35:56.942Z,1.95
2022-10-31T11:38:00.881Z,2.38
2022-10-31T11:40:06.435Z,2.63
2022-10-31T11:42:09.175Z,2.67
2022-10-31T11:44:17.633Z,1.67
2022-10-31T11:46:23.436Z,1.90
2022-10-31T11:48:26.392Z,2.10
2022-10-31T11:50:39.483Z,1.70
2022-10-31T11:52:41.674Z,2.40
2022-10-31T11:54:49.762Z,2.10
2022-10-31T11:56:51.646Z,1.65
2022-10-31T11:59:03.994Z,1.73
2022-10-31T12:01:05.807Z,3.20
2022-10-31T12:03:21.690Z,2.15
2022-10-31T12:05:33.851Z,2.13
2022-10-31T12:07:35.548Z,2.10
2022-10-31T12:09:38.600Z,1.98
2022-10-31T12:11:48.998Z,1.75
2022-10-31T12:14:12.610Z,1.65
2022-10-31T12:16:21.609Z,2.28
2022-10-31T12:18:40.782Z,1.92
2022-10-31T12:21:06.803Z,1.95
2022-10-31T12:23:19.153Z,1.75
2022-10-31T12:25:20.784Z,2.08
2022-10-31T12:27:29.238Z,2.15
2022-10-31T12:29:55.734Z,1.92
2022-10-31T12:32:25.449Z,2.28
2022-10-31T12:34:49.536Z,1.90
2022-10-31T12:37:04.659Z,2.20
2022-10-31T12:39:31.646Z,1.80
2022-10-31T12:41:47.003Z,2.08
2022-10-31T12:44:30.440Z,2.22
2022-10-31T12:46:54.797Z,1.98
2022-10-31T12:48:57.395Z,2.47
2022-10-31T12:51:12.205Z,1.83
2022-10-31T12:53:22.558Z,1.83
2022-10-31T12:55:46.866Z,2.17
2022-10-31T12:57:55.287Z,2.10
2022-10-31T13:00:17.073Z,1.85
2022-10-31T13:02:26.077Z,1.85
2022-10-31T13:04:39.732Z,2.03
2022-10-31T13:06:45.066Z,2.17
2022-10-31T13:08:52.469Z,1.88
2022-10-31T13:11:06.485Z,1.58
2022-10-31T13:13:33.145Z,2.03
2022-10-31T13:15:47.963Z,1.92
2022-10-31T13:18:01.720Z,2.10
2022-10-31T13:20:23.485Z,2.15
2022-10-31T13:22:29.012Z,2.72
2022-10-31T13:25:24.874Z,2.25
2022-10-31T13:27:29.616Z,2.10
2022-10-31T13:29:45.364Z,1.98
2022-10-31T13:31:47.157Z,2.08
2022-10-31T13:34:11.201Z,2.35
2022-10-31T13:36:20.375Z,1.95
2022-10-31T13:38:32.272Z,2.33
2022-10-31T13:40:33.827Z,1.52
2022-10-31T13:43:12.640Z,1.67
2022-10-31T13:45:19.614Z,1.60
2022-10-31T13:47:29.834Z,1.90
2022-10-31T13:49:31.571Z,1.40
2022-10-31T13:51:36.174Z,1.95
2022-10-31T13:53:45.265Z,2.65
2022-10-31T13:55:52.081Z,1.80
2022-10-31T13:57:53.875Z,1.67
2022-10-31T13:59:58.260Z,1.70
2022-10-31T14:02:02.672Z,2.17
2022-10-31T14:04:13.886Z,2.17
2022-10-31T14:06:17.605Z,1.38
2022-10-31T14:08:22.389Z,2.15
2022-10-31T14:10:28.197Z,1.77
2022-10-31T14:12:37.929Z,1.75
2022-10-31T14:14:51.611Z,2.28
2022-10-31T14:16:58.035Z,1.55
2022-10-31T14:19:06.482Z,1.90
2022-10-31T14:21:44.360Z,1.85
2022-10-31T14:23:48.368Z,2.05
2022-10-31T14:25:52.673Z,2.15
2022-10-31T14:27:54.556Z,2.25
2022-10-31T14:29:56.214Z,2.13
2022-10-31T14:32:13.813Z,2.03
2022-10-31T14:34:15.409Z,3.53
2022-10-31T14:36:23.816Z,2.63
2022-10-31T14:38:31.146Z,1.50
2022-10-31T14:41:11.367Z,2.38
2022-10-31T14:43:32.287Z,2.63
2022-10-31T14:45:55.121Z,2.60
2022-10-31T14:48:11.700Z,2.05
2022-10-31T14:50:37.899Z,3.25
2022-10-31T14:52:40.330Z,2.25
2022-10-31T14:54:47.238Z,2.08
2022-10-31T14:56:53.693Z,2.40
2022-10-31T14:58:58.564Z,2.60
2022-10-31T15:01:00.600Z,2.20
2022-10-31T15:03:11.075Z,2.03
2022-10-31T15:05:14.046Z,1.67
2022-10-31T15:07:24.942Z,2.50
2022-10-31T15:09:34.711Z,2.67
2022-10-31T15:11:39.120Z,1.60
2022-10-31T15:13:45.189Z,2.40
2022-10-31T15:15:52.073Z,1.65
2022-10-31T15:18:00.397Z,1.70
2022-10-31T15:20:04.811Z,1.88
2022-10-31T15:22:06.842Z,2.72
2022-10-31T15:24:13.841Z,1.85
2022-10-31T15:26:20.476Z,2.42
2022-10-31T15:28:51.104Z,1.60
2022-10-31T15:30:59.067Z,2.70
2022-10-31T15:33:00.736Z,2.33
2022-10-31T15:35:10.536Z,1.90
2022-10-31T15:37:16.990Z,2.05
2022-10-31T15:39:19.432Z,2.17
2022-10-31T15:41:51.711Z,2.38
2022-10-31T15:43:57.083Z,2.20
2022-10-31T15:45:59.180Z,1.85
2022-10-31T15:48:12.056Z,2.33
2022-10-31T15:50:23.301Z,3.22
2022-10-31T15:52:30.767Z,3.90
2022-10-31T15:54:32.479Z,3.67
2022-10-31T15:56:34.205Z,4.65
2022-10-31T15:58:44.917Z,2.97
2022-10-31T16:00:58.233Z,3.78
2022-10-31T16:03:15.064Z,2.92
2022-10-31T16:05:19.911Z,1.85
2022-10-31T16:07:23.666Z,2.15
2022-10-31T16:09:25.599Z,3.03
2022-10-31T16:11:36.881Z,3.05
2022-10-31T16:13:43.005Z,2.67
2022-10-31T16:16:21.381Z,3.42
2022-10-31T16:18:20.159Z,3.63
2022-10-31T16:20:29.910Z,4.80
2022-10-31T16:22:36.696Z,4.85
2022-10-31T16:24:47.389Z,4.13
2022-10-31T16:26:54.393Z,4.80
2022-10-31T16:29:04.757Z,6.38
2022-10-31T16:31:16.035Z,6.63
2022-10-31T16:33:26.356Z,6.53
2022-10-31T16:35:36.445Z,6.38
2022-10-31T16:37:42.332Z,4.97
2022-10-31T16:39:43.961Z,4.43
2022-10-31T16:41:47.821Z,3.08
2022-10-31T16:43:52.426Z,3.63
2022-10-31T16:45:54.267Z,3.08
2022-10-31T16:48:04.272Z,4.30
2022-10-31T16:50:11.706Z,4.65
2022-10-31T16:52:13.890Z,6.53
2022-10-31T16:54:15.476Z,7.75
2022-10-31T16:56:19.612Z,9.63
2022-10-31T16:58:29.142Z,8.75
2022-10-31T17:00:31.710Z,9.50
2022-10-31T17:02:33.973Z,7.97
2022-10-31T17:06:38.188Z,7.25
2022-10-31T17:08:39.819Z,7.63
2022-10-31T17:10:42.991Z,7.70
2022-10-31T17:12:46.482Z,6.68
2022-10-31T17:14:50.893Z,6.22
2022-10-31T17:16:52.613Z,6.57
2022-10-31T17:18:54.263Z,5.93
2022-10-31T17:21:00.105Z,4.72
2022-10-31T17:23:02.144Z,5.85
2022-10-31T17:25:04.106Z,4.93
2022-10-31T17:27:05.735Z,5.32
2022-10-31T17:29:07.383Z,3.92
2022-10-31T17:31:25.899Z,5.30
2022-10-31T17:33:27.932Z,4.60
2022-10-31T17:35:29.703Z,5.00
2022-10-31T17:37:31.383Z,5.88
2022-10-31T17:39:33.054Z,6.80
2022-10-31T17:41:34.685Z,7.95
2022-10-31T17:43:36.737Z,7.97
2022-10-31T17:45:42.234Z,7.85
2022-10-31T17:47:43.886Z,8.85
2022-10-31T17:49:45.543Z,9.32
2022-10-31T17:51:47.148Z,11.35
2022-10-31T17:53:48.867Z,12.60
2022-10-31T17:55:50.611Z,8.15
2022-10-31T17:57:52.240Z,6.43
2022-10-31T17:59:53.877Z,6.75
2022-10-31T18:01:57.025Z,4.35
2022-10-31T18:03:58.773Z,4.75
2022-10-31T18:06:00.423Z,4.72
2022-10-31T18:08:04.087Z,4.63
2022-10-31T18:10:06.840Z,4.28
2022-10-31T18:12:08.463Z,3.75
2022-10-31T18:14:10.946Z,6.85
2022-10-31T18:16:15.229Z,8.60
2022-10-31T18:18:16.952Z,17.20
2022-10-31T18:20:18.576Z,15.15
2022-10-31T18:22:20.226Z,14.07
2022-10-31T18:24:21.874Z,13.50
2022-10-31T18:26:24.794Z,12.80
2022-10-31T18:28:26.621Z,10.45
2022-10-31T18:30:28.303Z,12.75
2022-10-31T18:32:30.042Z,10.10
2022-10-31T18:34:31.681Z,9.70
2022-10-31T18:36:33.578Z,9.05
2022-10-31T18:38:38.667Z,9.43
2022-10-31T18:40:40.358Z,9.43
2022-10-31T18:42:42.037Z,9.60
2022-10-31T18:44:43.612Z,11.02
2022-10-31T18:46:45.240Z,8.30
2022-10-31T18:48:46.894Z,7.60
2022-10-31T18:50:48.595Z,6.68
2022-10-31T18:52:50.227Z,9.85
2022-10-31T18:54:51.834Z,9.32
2022-10-31T18:56:53.694Z,13.38
2022-10-31T18:58:55.243Z,11.07
2022-10-31T19:00:56.966Z,11.82
2022-10-31T19:02:59.145Z,9.65
2022-10-31T19:05:00.959Z,7.07
2022-10-31T19:07:02.585Z,6.03
2022-10-31T19:09:06.594Z,4.30
2022-10-31T19:11:11.645Z,3.15
2022-10-31T19:13:13.499Z,3.40
2022-10-31T19:15:15.123Z,3.63
2022-10-31T19:17:16.729Z,4.15
2022-10-31T19:19:20.511Z,3.05
2022-10-31T19:21:22.238Z,4.20
2022-10-31T19:23:23.835Z,3.42
2022-10-31T19:25:25.551Z,2.97
2022-10-31T19:27:28.225Z,3.05
2022-10-31T19:29:30.495Z,3.22
2022-10-31T19:31:32.242Z,2.70
2022-10-31T19:33:36.180Z,2.95
2022-10-31T19:35:41.109Z,4.22
2022-10-31T19:37:42.791Z,2.72
2022-10-31T19:39:44.593Z,3.03
2022-10-31T19:41:46.460Z,4.05
2022-10-31T19:43:48.713Z,11.68
2022-10-31T19:45:57.564Z,10.38
2022-10-31T19:47:59.507Z,11.05
2022-10-31T19:50:01.719Z,11.18
2022-10-31T19:52:03.662Z,10.40
2022-10-31T19:54:05.352Z,13.05
2022-10-31T19:56:17.827Z,11.27
2022-10-31T19:58:19.499Z,11.13
2022-10-31T20:00:21.217Z,11.50
2022-10-31T20:02:22.863Z,11.25
2022-10-31T20:04:24.625Z,11.60
2022-10-31T20:06:29.060Z,9.07
2022-10-31T20:08:31.491Z,10.60
2022-10-31T20:10:34.458Z,7.68
2022-10-31T20:12:36.053Z,7.22
2022-10-31T20:14:37.721Z,6.80
2022-10-31T20:16:39.889Z,6.57
2022-10-31T20:18:42.339Z,6.97
2022-10-31T20:20:44.555Z,6.13
2022-10-31T20:22:47.323Z,6.18
2022-10-31T20:24:48.905Z,5.88
2022-10-31T20:26:50.719Z,7.32
2022-10-31T20:28:52.698Z,6.97
2022-10-31T20:30:54.778Z,7.43
2022-10-31T20:32:56.399Z,7.60
2022-10-31T20:34:57.977Z,8.32
2022-10-31T20:36:59.686Z,9.50
2022-10-31T20:39:01.327Z,11.50
2022-10-31T20:41:04.490Z,15.98
2022-10-31T20:43:06.192Z,14.68
2022-10-31T20:45:08.423Z,13.52
2022-10-31T20:47:10.119Z,9.73
2022-10-31T20:49:12.352Z,8.73
2022-10-31T20:51:18.481Z,13.15
2022-10-31T20:53:20.099Z,10.48
2022-10-31T20:55:21.790Z,10.93
2022-10-31T20:57:23.418Z,10.43
2022-10-31T20:59:25.009Z,10.07
2022-10-31T21:01:29.174Z,10.07
2022-10-31T21:03:31.086Z,9.93
2022-10-31T21:05:32.772Z,9.10
2022-10-31T21:07:34.413Z,8.80
2022-10-31T21:09:36.347Z,7.97
2022-10-31T21:11:38.227Z,8.00
2022-10-31T21:13:41.349Z,7.65
2022-10-31T21:15:43.044Z,7.57
2022-10-31T21:17:44.676Z,8.25
2022-10-31T21:19:46.284Z,8.60
2022-10-31T21:21:48.110Z,8.52
2022-10-31T21:23:54.786Z,9.45
2022-10-31T21:25:56.374Z,8.77
2022-10-31T21:27:58.265Z,8.93
2022-10-31T21:30:00.927Z,8.65
2022-10-31T21:32:02.582Z,8.95
2022-10-31T21:34:04.640Z,9.52
2022-10-31T21:36:07.033Z,8.63
2022-10-31T21:38:10.003Z,9.65
2022-10-31T21:40:12.057Z,9.18
2022-10-31T21:42:17.492Z,9.25
2022-10-31T21:44:22.388Z,8.57
2022-10-31T21:46:26.222Z,10.13
2022-10-31T21:48:29.033Z,10.50
2022-10-31T21:50:30.653Z,9.82
2022-10-31T21:52:32.285Z,9.50
2022-10-31T21:54:33.968Z,10.40
2022-10-31T21:56:35.811Z,8.85
2022-10-31T21:58:38.683Z,8.50
2022-10-31T22:00:40.504Z,8.60
2022-10-31T22:02:42.214Z,8.43
2022-10-31T22:04:45.564Z,9.30
2022-10-31T22:06:47.291Z,8.57
2022-10-31T22:08:48.976Z,8.77
2022-10-31T22:10:50.641Z,8.68
2022-10-31T22:12:52.375Z,8.55
2022-10-31T22:14:54.021Z,8.57
2022-10-31T22:16:55.793Z,8.77
2022-10-31T22:18:59.008Z,8.80
2022-10-31T22:21:04.670Z,8.40
2022-10-31T22:23:07.773Z,8.38
2022-10-31T22:25:09.817Z,8.55
2022-10-31T22:27:11.471Z,6.45
2022-10-31T22:29:18.298Z,8.52
2022-10-31T22:31:21.258Z,7.60
2022-10-31T22:33:22.873Z,6.35
2022-10-31T22:35:24.511Z,7.90
2022-10-31T22:37:26.171Z,6.70
2022-10-31T22:39:28.638Z,7.25
2022-10-31T22:41:32.800Z,6.22
2022-10-31T22:43:34.710Z,8.35
2022-10-31T22:45:36.343Z,7.22
2022-10-31T22:49:44.094Z,9.40
2022-10-31T22:51:46.112Z,8.60
2022-10-31T22:53:48.116Z,10.20
2022-10-31T22:55:50.431Z,9.52
2022-10-31T22:57:52.176Z,9.10
2022-10-31T22:59:53.822Z,8.68
2022-10-31T23:01:55.582Z,9.45
2022-10-31T23:03:57.531Z,9.43
2022-10-31T23:06:04.189Z,10.40
2022-10-31T23:08:06.033Z,10.27
2022-10-31T23:10:08.047Z,9.73
2022-10-31T23:12:28.316Z,8.40
2022-10-31T23:14:29.966Z,8.43
2022-10-31T23:16:32.093Z,8.57
2022-10-31T23:18:49.711Z,7.90
2022-10-31T23:20:53.104Z,8.15
2022-10-31T23:22:56.073Z,7.30
2022-10-31T23:24:57.730Z,7.40
2022-10-31T23:27:09.721Z,8.02
2022-10-31T23:29:11.467Z,7.15
2022-10-31T23:31:13.188Z,7.90
2022-10-31T23:33:14.827Z,6.93
2022-10-31T23:35:16.452Z,6.57
2022-10-31T23:37:19.342Z,6.50
2022-10-31T23:39:24.214Z,7.00
2022-10-31T23:41:26.870Z,6.93
2022-10-31T23:43:28.524Z,7.22
2022-10-31T23:45:30.163Z,6.78
2022-10-31T23:47:31.934Z,7.25
2022-10-31T23:49:33.979Z,6.50
2022-10-31T23:51:35.718Z,7.63
2022-10-31T23:53:37.309Z,5.57
2022-10-31T23:55:38.905Z,7.85
2022-10-31T23:57:40.648Z,6.70
2022-10-31T23:59:42.347Z,5.88
